Time;durP1;ratioP1;P1;durP2;ratioP2;P2;SDS_P1;SDS_P2;PMS_P1;PMS_P2;Temp;Humidity;BMP_temperature;BMP_pressure;BME280_temperature;BME280_humidity;BME280_pressure;Samples;Min_cycle;Max_cycle;Signal;HPM_P1;HPM_P2
2022/04/28 00:00:54;;;;;;;29.52;4.97;;;;;;;;;;5086092;28;19931;-73
2022/04/28 00:03:25;;;;;;;26.83;4.82;;;;;;;;;;5085960;28;20087;-74
2022/04/28 00:05:55;;;;;;;28.90;5.53;;;;;;;;;;5084605;28;20052;-75
2022/04/28 00:08:25;;;;;;;27.77;5.18;;;;;;;;;;5089033;28;20044;-75
2022/04/28 00:10:55;;;;;;;34.67;5.77;;;;;;;;;;5100089;28;20044;-74
2022/04/28 00:13:27;;;;;;;25.90;4.32;;;;;;;;;;5104834;28;20286;-74
2022/04/28 00:15:58;;;;;;;33.83;5.05;;;;;;;;;;5094374;28;20496;-74
2022/04/28 00:18:29;;;;;;;25.67;4.78;;;;;;;;;;5096292;28;20055;-74
2022/04/28 00:20:59;;;;;;;42.23;7.27;;;;;;;;;;5095419;28;20519;-75
2022/04/28 00:23:29;;;;;;;40.30;5.25;;;;;;;;;;5093398;28;20051;-75
2022/04/28 00:25:59;;;;;;;37.55;5.63;;;;;;;;;;5095465;28;20051;-74
2022/04/28 00:28:29;;;;;;;36.22;5.60;;;;;;;;;;5096857;28;20491;-74
2022/04/28 00:30:59;;;;;;;36.65;5.50;;;;;;;;;;5094113;28;20525;-74
2022/04/28 00:33:32;;;;;;;37.92;4.75;;;;;;;;;;5101479;28;20077;-75
2022/04/28 00:36:03;;;;;;;28.63;5.00;;;;;;;;;;5106000;28;20063;-75
2022/04/28 00:38:33;;;;;;;34.25;5.25;;;;;;;;;;5106305;28;20063;-74
2022/04/28 00:41:03;;;;;;;38.88;5.28;;;;;;;;;;5105238;28;20044;-74
2022/04/28 00:43:48;;;;;;;32.63;4.57;;;;;;;;;;5104867;28;20048;-74
2022/04/28 00:46:20;;;;;;;40.13;5.70;;;;;;;;;;5105915;28;20052;-74
2022/04/28 00:51:40;;;;;;;35.88;5.38;;;;;;;;;;5094447;28;20538;-74
2022/04/28 00:54:10;;;;;;;36.10;5.10;;;;;;;;;;5104150;28;20035;-73
2022/04/28 00:56:41;;;;;;;40.07;6.00;;;;;;;;;;5100913;28;20054;-74
2022/04/28 00:59:12;;;;;;;29.05;5.18;;;;;;;;;;5092937;28;20084;-74
2022/04/28 01:01:42;;;;;;;;;;;;;;;;;;5096153;28;20048;-73
2022/04/28 01:04:12;;;;;;;21.02;4.22;;;;;;;;;;5099092;28;19923;-74
2022/04/28 01:06:43;;;;;;;35.25;5.15;;;;;;;;;;5097941;28;20052;-74
2022/04/28 01:09:16;;;;;;;31.23;4.85;;;;;;;;;;5095100;28;20047;-75
2022/04/28 01:11:46;;;;;;;39.45;5.28;;;;;;;;;;5099926;28;20043;-75
2022/04/28 01:14:22;;;;;;;34.30;4.95;;;;;;;;;;5091461;28;20064;-76
2022/04/28 01:17:01;;;;;;;35.17;4.97;;;;;;;;;;5098555;28;20032;-75
2022/04/28 01:19:32;;;;;;;30.73;4.70;;;;;;;;;;5095740;28;20064;-75
2022/04/28 01:22:07;;;;;;;32.20;4.90;;;;;;;;;;5098740;28;20048;-74
2022/04/28 01:24:38;;;;;;;28.17;4.93;;;;;;;;;;5098327;28;20051;-75
2022/04/28 01:27:13;;;;;;;37.85;5.15;;;;;;;;;;5095582;28;20055;-77
2022/04/28 01:29:44;;;;;;;36.38;5.25;;;;;;;;;;5093959;28;20426;-76
2022/04/28 01:32:14;;;;;;;33.33;6.20;;;;;;;;;;5087351;28;20059;-75
2022/04/28 01:34:45;;;;;;;29.95;5.75;;;;;;;;;;5101612;28;20062;-75
2022/04/28 01:37:15;;;;;;;33.28;5.65;;;;;;;;;;5105457;28;20486;-75
2022/04/28 01:39:45;;;;;;;34.75;5.22;;;;;;;;;;5106477;28;20063;-75
2022/04/28 01:42:16;;;;;;;38.53;5.15;;;;;;;;;;5107166;28;20383;-75
2022/04/28 01:44:46;;;;;;;30.20;4.68;;;;;;;;;;5090839;28;21134;-75
2022/04/28 01:47:17;;;;;;;35.42;5.93;;;;;;;;;;5107702;28;20406;-75
2022/04/28 01:49:47;;;;;;;33.42;5.43;;;;;;;;;;5109289;28;20051;-75
2022/04/28 01:56:16;;;;;;;28.20;4.95;;;;;;;;;;5045943;28;20072;-74
2022/04/28 01:59:09;;;;;;;24.10;4.18;;;;;;;;;;5078876;28;20414;-75
2022/04/28 02:02:18;;;;;;;25.35;4.70;;;;;;;;;;5108310;28;20051;-75
2022/04/28 02:04:48;;;;;;;26.42;4.50;;;;;;;;;;5106570;28;20059;-74
2022/04/28 02:07:19;;;;;;;30.65;4.18;;;;;;;;;;5107649;28;20113;-75
2022/04/28 02:09:49;;;;;;;31.33;4.97;;;;;;;;;;5107381;28;20062;-75
2022/04/28 02:12:19;;;;;;;26.40;4.40;;;;;;;;;;5106552;28;20047;-75
2022/04/28 02:15:08;;;;;;;27.95;4.90;;;;;;;;;;5113693;28;20059;-74
2022/04/28 02:17:58;;;;;;;26.83;4.05;;;;;;;;;;5108855;28;20060;-74
2022/04/28 02:20:28;;;;;;;30.35;4.10;;;;;;;;;;5106793;28;20062;-74
2022/04/28 02:22:58;;;;;;;22.92;4.03;;;;;;;;;;5108845;28;20511;-75
2022/04/28 02:25:30;;;;;;;24.13;4.80;;;;;;;;;;5106284;28;20055;-75
2022/04/28 02:28:01;;;;;;;34.63;4.90;;;;;;;;;;5106521;28;20059;-73
2022/04/28 02:30:30;;;;;;;34.17;4.93;;;;;;;;;;5106529;28;20414;-72
2022/04/28 02:33:10;;;;;;;32.53;4.95;;;;;;;;;;5108812;28;20517;-72
2022/04/28 02:35:59;;;;;;;27.30;4.18;;;;;;;;;;5112980;28;20052;-72
2022/04/28 02:38:35;;;;;;;29.30;4.50;;;;;;;;;;5106884;28;20055;-73
2022/04/28 02:41:10;;;;;;;26.15;4.07;;;;;;;;;;5106231;28;20055;-73
2022/04/28 02:43:40;;;;;;;24.35;4.00;;;;;;;;;;5106232;28;20522;-73
2022/04/28 02:46:15;;;;;;;37.00;5.38;;;;;;;;;;5106465;28;20449;-74
2022/04/28 02:49:15;;;;;;;27.13;4.90;;;;;;;;;;5103693;28;20047;-73
2022/04/28 02:51:45;;;;;;;29.90;4.57;;;;;;;;;;5106353;28;20055;-74
2022/04/28 02:54:15;;;;;;;35.65;4.78;;;;;;;;;;5107693;28;20036;-73
2022/04/28 02:56:48;;;;;;;27.58;4.32;;;;;;;;;;5106338;28;20054;-74
2022/04/28 02:59:18;;;;;;;26.52;3.33;;;;;;;;;;5107860;28;20058;-74
2022/04/28 03:01:48;;;;;;;31.35;4.47;;;;;;;;;;5090064;28;20063;-72
2022/04/28 03:04:18;;;;;;;26.17;3.80;;;;;;;;;;5107195;28;20414;-75
2022/04/28 03:12:27;;;;;;;29.58;4.15;;;;;;;;;;5105996;28;20054;-73
2022/04/28 03:15:20;;;;;;;22.83;4.30;;;;;;;;;;5099750;28;20059;-74
2022/04/28 03:17:50;;;;;;;22.20;3.88;;;;;;;;;;5105085;28;20078;-73
2022/04/28 03:20:20;;;;;;;27.42;5.22;;;;;;;;;;5105591;28;20063;-74
2022/04/28 03:22:50;;;;;;;22.83;3.83;;;;;;;;;;5105731;28;20051;-73
2022/04/28 03:25:20;;;;;;;36.50;4.32;;;;;;;;;;5105296;28;20043;-74
2022/04/28 03:27:50;;;;;;;31.25;4.72;;;;;;;;;;5089351;28;20055;-73
2022/04/28 03:30:20;;;;;;;39.63;4.65;;;;;;;;;;5105379;28;20506;-73
2022/04/28 03:33:08;;;;;;;27.83;3.85;;;;;;;;;;5109010;28;20040;-74
2022/04/28 03:35:39;;;;;;;22.95;3.88;;;;;;;;;;5107360;28;20039;-74
2022/04/28 03:38:11;;;;;;;21.45;3.88;;;;;;;;;;5105317;28;20055;-74
2022/04/28 03:40:44;;;;;;;25.50;3.92;;;;;;;;;;5105340;28;20051;-74
2022/04/28 03:43:14;;;;;;;33.27;4.80;;;;;;;;;;5105739;28;20051;-74
2022/04/28 03:45:45;;;;;;;33.47;4.95;;;;;;;;;;5104841;28;20060;-73
2022/04/28 03:48:20;;;;;;;28.90;5.43;;;;;;;;;;5105165;28;20059;-73
2022/04/28 03:50:51;;;;;;;35.45;5.18;;;;;;;;;;5106936;28;20044;-74
2022/04/28 03:53:21;;;;;;;31.25;5.05;;;;;;;;;;5104921;28;20055;-74
2022/04/28 03:55:53;;;;;;;27.60;4.65;;;;;;;;;;5105266;28;20047;-74
2022/04/28 03:58:25;;;;;;;26.98;4.72;;;;;;;;;;5106073;28;20410;-74
2022/04/28 04:00:55;;;;;;;33.70;4.50;;;;;;;;;;5104829;28;20056;-73
2022/04/28 04:03:36;;;;;;;36.63;4.88;;;;;;;;;;5104652;28;20048;-73
2022/04/28 04:06:07;;;;;;;27.38;5.22;;;;;;;;;;5085080;28;20044;-73
2022/04/28 04:08:37;;;;;;;30.60;4.88;;;;;;;;;;5085100;28;20058;-74
2022/04/28 04:11:16;;;;;;;37.65;5.63;;;;;;;;;;5084904;28;20507;-73
2022/04/28 04:13:46;;;;;;;48.30;4.93;;;;;;;;;;5086811;28;20047;-74
2022/04/28 04:16:16;;;;;;;38.63;4.78;;;;;;;;;;5084702;28;20503;-74
2022/04/28 04:19:04;;;;;;;44.30;5.43;;;;;;;;;;5085148;28;20059;-73
2022/04/28 04:21:39;;;;;;;48.33;5.70;;;;;;;;;;5085058;28;20056;-74
2022/04/28 04:24:09;;;;;;;44.92;5.18;;;;;;;;;;5085277;28;20789;-74
2022/04/28 04:26:41;;;;;;;38.10;6.32;;;;;;;;;;5085768;28;20048;-74
2022/04/28 04:29:15;;;;;;;38.33;4.65;;;;;;;;;;5089260;28;20055;-73
2022/04/28 04:32:17;;;;;;;34.45;4.85;;;;;;;;;;5089374;28;20052;-73
2022/04/28 04:34:54;;;;;;;35.17;5.00;;;;;;;;;;5090653;28;20055;-74
2022/04/28 04:37:29;;;;;;;35.40;5.38;;;;;;;;;;5088841;28;20047;-74
2022/04/28 04:39:59;;;;;;;28.23;4.38;;;;;;;;;;5089544;28;20052;-74
2022/04/28 04:42:29;;;;;;;34.17;5.55;;;;;;;;;;5088885;28;20051;-74
2022/04/28 04:45:01;;;;;;;25.50;4.75;;;;;;;;;;5089164;28;20149;-73
2022/04/28 04:47:46;;;;;;;30.88;4.63;;;;;;;;;;5089045;28;20056;-73
2022/04/28 04:50:20;;;;;;;30.13;4.78;;;;;;;;;;5088998;28;20534;-73
2022/04/28 04:53:13;;;;;;;30.10;4.18;;;;;;;;;;5089835;28;20390;-73
2022/04/28 04:55:43;;;;;;;25.83;4.30;;;;;;;;;;5089626;28;20051;-74
2022/04/28 04:58:13;;;;;;;30.35;4.88;;;;;;;;;;5088982;28;20068;-73
2022/04/28 05:00:43;;;;;;;28.38;4.70;;;;;;;;;;5088912;28;20048;-73
2022/04/28 05:03:25;;;;;;;37.47;5.40;;;;;;;;;;5089834;28;20055;-73
2022/04/28 05:06:14;;;;;;;28.00;4.88;;;;;;;;;;5093627;28;20056;-73
2022/04/28 05:08:58;;;;;;;30.90;4.57;;;;;;;;;;5088448;28;20055;-75
2022/04/28 05:11:29;;;;;;;35.53;4.90;;;;;;;;;;5088985;28;20467;-74
2022/04/28 05:14:09;;;;;;;32.42;5.45;;;;;;;;;;5090159;28;20046;-73
2022/04/28 05:16:39;;;;;;;39.05;5.45;;;;;;;;;;5088651;28;20059;-73
2022/04/28 05:19:31;;;;;;;32.25;5.05;;;;;;;;;;5090295;28;20476;-74
2022/04/28 05:22:04;;;;;;;29.77;4.57;;;;;;;;;;5089137;28;20063;-73
2022/04/28 05:25:09;;;;;;;29.52;4.22;;;;;;;;;;5088434;28;20506;-73
2022/04/28 05:28:15;;;;;;;29.42;4.65;;;;;;;;;;5089081;28;20530;-73
2022/04/28 05:31:03;;;;;;;33.90;4.00;;;;;;;;;;5093541;28;20056;-74
2022/04/28 05:33:55;;;;;;;28.27;4.65;;;;;;;;;;5089207;28;20056;-73
2022/04/28 05:36:45;;;;;;;29.08;4.05;;;;;;;;;;5088801;28;20044;-73
2022/04/28 05:39:21;;;;;;;36.25;4.65;;;;;;;;;;5087175;28;20048;-73
2022/04/28 05:41:52;;;;;;;27.75;4.15;;;;;;;;;;5088901;28;20052;-73
2022/04/28 05:47:10;;;;;;;37.92;5.03;;;;;;;;;;5088577;28;20051;-74
2022/04/28 05:49:40;;;;;;;41.88;5.15;;;;;;;;;;5088025;28;20044;-74
2022/04/28 05:52:10;;;;;;;35.53;5.13;;;;;;;;;;5087751;28;20055;-73
2022/04/28 05:54:40;;;;;;;39.45;5.78;;;;;;;;;;5087767;28;20044;-74
2022/04/28 05:57:12;;;;;;;29.90;5.72;;;;;;;;;;5087055;28;20040;-73
2022/04/28 05:59:42;;;;;;;32.67;4.63;;;;;;;;;;5086906;28;20056;-74
2022/04/28 06:02:29;;;;;;;44.45;5.05;;;;;;;;;;5092739;28;20819;-73
2022/04/28 06:05:03;;;;;;;37.78;4.80;;;;;;;;;;5099175;28;20052;-73
2022/04/28 06:07:34;;;;;;;41.15;5.28;;;;;;;;;;5109153;28;20036;-73
2022/04/28 06:10:04;;;;;;;40.05;5.10;;;;;;;;;;5106169;28;20051;-73
2022/04/28 06:12:34;;;;;;;33.97;5.28;;;;;;;;;;5106952;28;20047;-73
2022/04/28 06:15:22;;;;;;;39.13;5.55;;;;;;;;;;5111864;28;20446;-73
2022/04/28 06:18:02;;;;;;;46.28;6.50;;;;;;;;;;5110038;28;20047;-74
2022/04/28 06:20:32;;;;;;;30.15;4.32;;;;;;;;;;5107452;28;20047;-73
2022/04/28 06:23:11;;;;;;;38.58;5.57;;;;;;;;;;5107177;28;20529;-73
2022/04/28 06:25:47;;;;;;;43.22;6.50;;;;;;;;;;5106534;28;20047;-73
2022/04/28 06:28:18;;;;;;;41.05;5.13;;;;;;;;;;5107103;28;20054;-73
2022/04/28 06:30:55;;;;;;;32.55;4.25;;;;;;;;;;5106297;28;20062;-74
2022/04/28 06:33:58;;;;;;;32.60;4.35;;;;;;;;;;5085342;28;20059;-73
2022/04/28 06:36:35;;;;;;;43.40;5.20;;;;;;;;;;5075744;28;20047;-73
2022/04/28 06:39:07;;;;;;;30.85;4.07;;;;;;;;;;5106275;28;20056;-73
2022/04/28 06:41:37;;;;;;;40.97;5.50;;;;;;;;;;5106196;28;20062;-73
2022/04/28 06:44:19;;;;;;;28.27;4.10;;;;;;;;;;5106179;28;20047;-73
2022/04/28 06:47:08;;;;;;;44.92;5.30;;;;;;;;;;5109783;28;20063;-74
2022/04/28 06:50:11;;;;;;;34.03;5.25;;;;;;;;;;5073929;28;20565;-73
2022/04/28 06:53:16;;;;;;;32.05;4.93;;;;;;;;;;5107066;28;20064;-73
2022/04/28 06:55:50;;;;;;;34.33;5.38;;;;;;;;;;5105579;28;20056;-74
2022/04/28 06:58:24;;;;;;;;;;;;;;;;;;5106617;28;20514;-73
2022/04/28 07:00:54;;;;;;;26.30;4.07;;;;;;;;;;5106047;28;20409;-73
2022/04/28 07:03:24;;;;;;;26.65;4.80;;;;;;;;;;5105872;28;20047;-73
2022/04/28 07:05:57;;;;;;;35.75;4.55;;;;;;;;;;5105541;28;20079;-73
2022/04/28 07:08:27;;;;;;;30.60;4.78;;;;;;;;;;5105615;28;20051;-73
2022/04/28 07:10:58;;;;;;;28.70;4.70;;;;;;;;;;5105988;28;20060;-73
2022/04/28 07:13:29;;;;;;;35.33;5.10;;;;;;;;;;5105923;28;20047;-74
2022/04/28 07:16:22;;;;;;;29.45;4.28;;;;;;;;;;5108991;28;20162;-73
2022/04/28 07:19:15;;;;;;;42.70;4.78;;;;;;;;;;5105543;28;20043;-74
2022/04/28 07:21:48;;;;;;;37.83;4.47;;;;;;;;;;5104599;28;20055;-74
2022/04/28 07:24:19;;;;;;;27.85;4.75;;;;;;;;;;5101885;28;20052;-73
2022/04/28 07:26:49;;;;;;;29.50;5.18;;;;;;;;;;5103751;28;20759;-73
2022/04/28 07:29:19;;;;;;;28.38;4.55;;;;;;;;;;5104098;28;20044;-73
2022/04/28 07:32:10;;;;;;;21.60;4.60;;;;;;;;;;5106122;28;20044;-72
2022/04/28 07:35:03;;;;;;;36.28;4.40;;;;;;;;;;5108415;28;20047;-73
2022/04/28 07:37:52;;;;;;;26.45;4.18;;;;;;;;;;5112491;28;20047;-73
2022/04/28 07:40:48;;;;;;;30.67;4.18;;;;;;;;;;5106626;28;20514;-73
2022/04/28 07:43:20;;;;;;;36.03;5.03;;;;;;;;;;5105512;28;20517;-73
2022/04/28 07:45:53;;;;;;;29.92;4.35;;;;;;;;;;5105026;28;20078;-73
2022/04/28 07:48:24;;;;;;;38.20;5.00;;;;;;;;;;5105580;28;20418;-73
2022/04/28 07:50:55;;;;;;;;;;;;;;;;;;5105579;28;20062;-73
2022/04/28 07:53:28;;;;;;;30.00;4.82;;;;;;;;;;5104661;28;19930;-73
2022/04/28 07:56:14;;;;;;;35.65;4.72;;;;;;;;;;5107004;28;20052;-73
2022/04/28 07:58:48;;;;;;;40.25;5.38;;;;;;;;;;5105421;28;20062;-73
2022/04/28 08:01:55;;;;;;;46.55;5.43;;;;;;;;;;5104689;28;20499;-73
2022/04/28 08:04:27;;;;;;;34.20;5.32;;;;;;;;;;5104856;28;20067;-73
2022/04/28 08:07:00;;;;;;;43.38;5.28;;;;;;;;;;5104800;28;20054;-73
2022/04/28 08:09:32;;;;;;;41.45;6.13;;;;;;;;;;5105158;28;20095;-74
2022/04/28 08:12:11;;;;;;;50.90;6.82;;;;;;;;;;5105005;28;20055;-73
2022/04/28 08:15:08;;;;;;;47.90;6.38;;;;;;;;;;5105041;28;20063;-73
2022/04/28 08:17:39;;;;;;;;;;;;;;;;;;5106072;28;20058;-74
2022/04/28 08:20:09;;;;;;;35.45;4.65;;;;;;;;;;5105081;28;20382;-73
2022/04/28 08:22:39;;;;;;;32.15;4.57;;;;;;;;;;5104731;28;20468;-73
2022/04/28 08:25:10;;;;;;;;;;;;;;;;;;5105159;28;20396;-74
2022/04/28 08:27:40;;;;;;;20.67;4.25;;;;;;;;;;5104834;28;19931;-73
2022/04/28 08:30:12;;;;;;;26.98;4.70;;;;;;;;;;5107211;28;20043;-73
2022/04/28 08:32:42;;;;;;;20.30;4.15;;;;;;;;;;5105461;28;20052;-74
2022/04/28 08:35:12;;;;;;;23.20;4.00;;;;;;;;;;5104387;28;20060;-73
2022/04/28 08:37:42;;;;;;;20.80;4.22;;;;;;;;;;5104445;28;20066;-74
2022/04/28 08:40:13;;;;;;;18.07;4.43;;;;;;;;;;5104695;28;20055;-73
2022/04/28 08:42:44;;;;;;;17.75;4.32;;;;;;;;;;5104845;28;20786;-73
2022/04/28 08:45:22;;;;;;;20.13;3.50;;;;;;;;;;5104990;28;20056;-73
2022/04/28 08:48:11;;;;;;;16.77;4.18;;;;;;;;;;5107370;28;20486;-74
2022/04/28 08:51:18;;;;;;;14.98;3.42;;;;;;;;;;5063415;28;20051;-74
2022/04/28 08:53:50;;;;;;;22.27;3.40;;;;;;;;;;5099388;28;20059;-73
2022/04/28 08:56:24;;;;;;;18.10;3.25;;;;;;;;;;5104325;28;20044;-75
2022/04/28 08:58:59;;;;;;;16.60;3.38;;;;;;;;;;5105029;28;20506;-73
2022/04/28 09:01:30;;;;;;;12.45;3.38;;;;;;;;;;5088275;28;20048;-74
2022/04/28 09:04:30;;;;;;;20.25;3.80;;;;;;;;;;5106437;28;20048;-73
2022/04/28 09:07:12;;;;;;;16.88;3.80;;;;;;;;;;5106441;28;20048;-74
2022/04/28 09:09:43;;;;;;;22.00;3.25;;;;;;;;;;5106599;28;20051;-74
2022/04/28 09:12:28;;;;;;;17.30;3.60;;;;;;;;;;5109158;28;20498;-74
2022/04/28 09:15:23;;;;;;;13.75;3.50;;;;;;;;;;5093450;28;20517;-75
2022/04/28 09:18:00;;;;;;;13.32;2.88;;;;;;;;;;5108099;28;20048;-75
2022/04/28 09:20:31;;;;;;;14.13;3.03;;;;;;;;;;5110092;28;20059;-74
2022/04/28 09:23:12;;;;;;;11.73;3.03;;;;;;;;;;5108242;28;20059;-74
2022/04/28 09:25:46;;;;;;;15.07;3.22;;;;;;;;;;5108222;28;20051;-74
2022/04/28 09:28:17;;;;;;;20.48;3.00;;;;;;;;;;5108125;28;20398;-74
2022/04/28 09:30:51;;;;;;;15.07;3.50;;;;;;;;;;5107909;28;20054;-74
2022/04/28 09:33:50;;;;;;;14.27;3.08;;;;;;;;;;5080860;27;20111;-74
2022/04/28 09:36:45;;;;;;;14.50;2.88;;;;;;;;;;5104481;28;20400;-74
2022/04/28 09:42:33;;;;;;;16.70;3.20;;;;;;;;;;5109700;28;20494;-76
2022/04/28 09:45:12;;;;;;;15.63;3.08;;;;;;;;;;5107190;28;21127;-74
2022/04/28 09:48:00;;;;;;;14.55;2.78;;;;;;;;;;5106849;28;20059;-74
2022/04/28 09:50:41;;;;;;;15.43;2.88;;;;;;;;;;5094650;28;20075;-74
2022/04/28 09:53:33;;;;;;;35.63;5.55;;;;;;;;;;5093595;28;20058;-75
2022/04/28 09:56:17;;;;;;;17.17;3.58;;;;;;;;;;5092477;28;20055;-77
2022/04/28 09:59:06;;;;;;;11.50;3.63;;;;;;;;;;5086007;28;20059;-74
2022/04/28 10:01:38;;;;;;;14.02;4.43;;;;;;;;;;5090917;28;20110;-75
2022/04/28 10:04:09;;;;;;;20.63;3.92;;;;;;;;;;5086025;28;20086;-74
2022/04/28 10:07:06;;;;;;;16.63;4.80;;;;;;;;;;5064989;28;20115;-75
2022/04/28 10:09:40;;;;;;;22.58;4.10;;;;;;;;;;5085798;28;20044;-74
2022/04/28 10:12:20;;;;;;;16.17;4.43;;;;;;;;;;5091234;28;20051;-80
2022/04/28 10:15:07;;;;;;;17.70;4.25;;;;;;;;;;5087021;28;20067;-77
2022/04/28 10:17:49;;;;;;;21.45;4.68;;;;;;;;;;5085587;28;20052;-74
2022/04/28 10:20:42;;;;;;;15.77;4.15;;;;;;;;;;5087728;28;20047;-76
2022/04/28 10:33:18;;;;;;;22.65;4.93;;;;;;;;;;5084426;28;20060;-74
2022/04/28 10:35:54;;;;;;;25.75;4.38;;;;;;;;;;5091211;28;21038;-74
2022/04/28 10:38:38;;;;;;;22.38;4.50;;;;;;;;;;5097583;28;20052;-74
2022/04/28 10:41:10;;;;;;;17.83;3.72;;;;;;;;;;5087943;28;20044;-74
2022/04/28 10:43:43;;;;;;;24.90;6.50;;;;;;;;;;5097191;28;20059;-74
2022/04/28 10:46:15;;;;;;;16.10;3.97;;;;;;;;;;5092129;28;20048;-76
2022/04/28 10:48:48;;;;;;;12.15;3.50;;;;;;;;;;5087143;28;20051;-76
2022/04/28 10:51:30;;;;;;;13.57;3.33;;;;;;;;;;5086244;28;20938;-80
2022/04/28 10:54:19;;;;;;;8.43;2.65;;;;;;;;;;5086709;28;20052;-74
2022/04/28 10:56:50;;;;;;;6.55;2.55;;;;;;;;;;5086837;28;20036;-74
2022/04/28 10:59:29;;;;;;;14.18;3.20;;;;;;;;;;5086795;28;20510;-76
2022/04/28 11:02:19;;;;;;;9.88;3.00;;;;;;;;;;5087128;28;20052;-77
2022/04/28 11:05:01;;;;;;;10.45;2.97;;;;;;;;;;5071743;28;20052;-75
2022/04/28 11:07:32;;;;;;;13.52;3.63;;;;;;;;;;5087484;28;20051;-75
2022/04/28 11:10:04;;;;;;;18.48;4.85;;;;;;;;;;5086759;28;20052;-74
2022/04/28 11:12:38;;;;;;;18.48;3.75;;;;;;;;;;5087388;28;20059;-74
2022/04/28 11:15:12;;;;;;;10.38;2.53;;;;;;;;;;5087399;28;20040;-74
2022/04/28 11:17:44;;;;;;;20.80;4.78;;;;;;;;;;5085724;28;20052;-74
2022/04/28 11:20:18;;;;;;;11.73;3.00;;;;;;;;;;5086893;28;20434;-75
2022/04/28 11:23:07;;;;;;;13.38;3.15;;;;;;;;;;5084863;28;20048;-76
2022/04/28 11:25:37;;;;;;;20.77;3.97;;;;;;;;;;5087099;28;20044;-74
2022/04/28 11:28:10;;;;;;;11.45;3.03;;;;;;;;;;5084826;28;20063;-74
2022/04/28 11:30:42;;;;;;;18.20;3.13;;;;;;;;;;5085263;28;20052;-74
2022/04/28 11:33:13;;;;;;;10.25;2.53;;;;;;;;;;5085016;28;20294;-76
2022/04/28 11:35:43;;;;;;;13.50;2.83;;;;;;;;;;5086007;28;20051;-75
2022/04/28 11:38:13;;;;;;;7.93;2.63;;;;;;;;;;5085912;28;20400;-74
2022/04/28 11:40:44;;;;;;;10.13;2.60;;;;;;;;;;5086980;28;20048;-75
2022/04/28 11:43:15;;;;;;;11.38;3.22;;;;;;;;;;5087150;28;20399;-75
2022/04/28 11:45:46;;;;;;;11.10;2.42;;;;;;;;;;5086664;28;20499;-74
2022/04/28 11:48:16;;;;;;;10.93;3.10;;;;;;;;;;5086576;28;20044;-76
2022/04/28 11:50:47;;;;;;;19.95;3.03;;;;;;;;;;5086340;28;20491;-75
2022/04/28 11:53:18;;;;;;;14.23;2.65;;;;;;;;;;5086609;28;20427;-74
2022/04/28 11:55:50;;;;;;;28.90;4.65;;;;;;;;;;5085734;28;20044;-75
2022/04/28 11:58:21;;;;;;;39.03;21.27;;;;;;;;;;5086222;28;20515;-75
2022/04/28 12:00:51;;;;;;;17.10;3.60;;;;;;;;;;5086715;28;20044;-74
2022/04/28 12:03:30;;;;;;;41.30;6.32;;;;;;;;;;5086924;28;20518;-75
2022/04/28 12:06:01;;;;;;;43.28;6.82;;;;;;;;;;5085311;28;20818;-75
2022/04/28 12:08:34;;;;;;;18.17;3.53;;;;;;;;;;5086322;28;20072;-75
2022/04/28 12:14:22;;;;;;;23.88;4.68;;;;;;;;;;5043597;28;20049;-74
2022/04/28 12:19:47;;;;;;;11.57;3.00;;;;;;;;;;5085973;28;20051;-75
2022/04/28 12:22:28;;;;;;;12.45;2.78;;;;;;;;;;5086586;28;20054;-75
2022/04/28 12:25:17;;;;;;;18.30;5.40;;;;;;;;;;5086533;28;20044;-75
2022/04/28 12:27:54;;;;;;;10.02;2.83;;;;;;;;;;5083914;28;20060;-75
2022/04/28 12:30:25;;;;;;;5.72;2.15;;;;;;;;;;5086103;28;20048;-77
2022/04/28 12:32:55;;;;;;;8.77;3.05;;;;;;;;;;5086117;28;20044;-74
2022/04/28 12:35:28;;;;;;;11.38;3.20;;;;;;;;;;5085651;28;20052;-76
2022/04/28 12:38:06;;;;;;;12.43;3.55;;;;;;;;;;5086293;28;20052;-75
2022/04/28 12:40:38;;;;;;;21.00;4.32;;;;;;;;;;5085043;28;20044;-75
2022/04/28 12:43:10;;;;;;;18.27;3.78;;;;;;;;;;5085984;28;20047;-74
2022/04/28 12:45:51;;;;;;;20.55;4.45;;;;;;;;;;5085922;28;20406;-75
2022/04/28 12:48:33;;;;;;;21.70;4.75;;;;;;;;;;5084522;28;20060;-76
2022/04/28 12:51:21;;;;;;;21.80;5.22;;;;;;;;;;5090471;28;20044;-75
2022/04/28 12:53:53;;;;;;;26.05;5.20;;;;;;;;;;5090859;28;20051;-76
2022/04/28 12:56:32;;;;;;;21.20;5.40;;;;;;;;;;5089998;28;20055;-74
2022/04/28 12:59:05;;;;;;;24.25;5.32;;;;;;;;;;5089615;28;20380;-75
2022/04/28 13:01:39;;;;;;;21.50;5.05;;;;;;;;;;5089065;28;20055;-75
2022/04/28 13:04:14;;;;;;;22.73;5.05;;;;;;;;;;5089658;28;20059;-75
2022/04/28 13:06:46;;;;;;;19.02;4.90;;;;;;;;;;5090319;28;20040;-75
2022/04/28 13:09:17;;;;;;;17.13;4.82;;;;;;;;;;5089030;28;20048;-75
2022/04/28 13:11:50;;;;;;;20.95;5.97;;;;;;;;;;5090034;28;20059;-76
2022/04/28 13:14:22;;;;;;;19.33;4.85;;;;;;;;;;5089588;28;20062;-75
2022/04/28 13:16:52;;;;;;;19.95;4.97;;;;;;;;;;5088968;28;20055;-76
2022/04/28 13:19:23;;;;;;;22.60;5.35;;;;;;;;;;5089145;28;20415;-75
2022/04/28 13:21:53;;;;;;;24.58;5.47;;;;;;;;;;5089353;28;20518;-75
2022/04/28 13:24:23;;;;;;;22.63;4.45;;;;;;;;;;5089687;28;20048;-75
2022/04/28 13:26:53;;;;;;;;;;;;;;;;;;5088022;28;20056;-75
2022/04/28 13:29:29;;;;;;;23.05;4.30;;;;;;;;;;5088308;28;20310;-76
2022/04/28 13:31:59;;;;;;;16.38;3.85;;;;;;;;;;5088855;28;20052;-76
2022/04/28 13:34:30;;;;;;;19.92;5.13;;;;;;;;;;5089733;28;20400;-75
2022/04/28 13:37:00;;;;;;;19.38;4.47;;;;;;;;;;5087629;28;20547;-76
2022/04/28 13:39:30;;;;;;;23.00;4.60;;;;;;;;;;5089313;28;20515;-75
2022/04/28 13:41:59;;;;;;;17.98;4.45;;;;;;;;;;5088352;28;20052;-76
2022/04/28 13:44:30;;;;;;;30.27;5.07;;;;;;;;;;5089185;28;20048;-75
2022/04/28 13:47:04;;;;;;;27.88;5.45;;;;;;;;;;5089192;28;20492;-76
2022/04/28 13:49:35;;;;;;;27.60;4.70;;;;;;;;;;5089083;28;20507;-75
2022/04/28 13:52:06;;;;;;;16.67;4.15;;;;;;;;;;5087559;28;20036;-74
2022/04/28 13:54:36;;;;;;;10.32;2.13;;;;;;;;;;5088411;28;20052;-74
2022/04/28 13:57:06;;;;;;;8.30;2.17;;;;;;;;;;5088869;28;20047;-78
2022/04/28 13:59:37;;;;;;;8.25;1.80;;;;;;;;;;5089085;28;20048;-75
2022/04/28 14:02:07;;;;;;;6.18;1.13;;;;;;;;;;5088218;28;20483;-75
2022/04/28 14:04:43;;;;;;;7.40;1.50;;;;;;;;;;5087982;28;20459;-78
2022/04/28 14:07:14;;;;;;;3.83;1.10;;;;;;;;;;5087130;28;20048;-74
2022/04/28 14:09:45;;;;;;;4.32;0.85;;;;;;;;;;5088302;28;20048;-75
2022/04/28 14:12:15;;;;;;;6.53;0.97;;;;;;;;;;5087989;28;20051;-75
2022/04/28 14:14:46;;;;;;;6.97;1.00;;;;;;;;;;5087879;28;20044;-76
2022/04/28 14:17:16;;;;;;;6.15;1.20;;;;;;;;;;5086938;28;20047;-75
2022/04/28 14:27:38;;;;;;;3.75;0.73;;;;;;;;;;5103818;27;20836;-74
2022/04/28 14:30:09;;;;;;;2.45;0.65;;;;;;;;;;5103953;28;20066;-74
2022/04/28 14:32:39;;;;;;;3.92;0.77;;;;;;;;;;5104007;28;20063;-73
2022/04/28 14:35:11;;;;;;;3.28;0.70;;;;;;;;;;5101276;28;20059;-73
2022/04/28 14:37:41;;;;;;;;;;;;;;;;;;5103873;28;20040;-75
2022/04/28 14:40:13;;;;;;;8.27;0.93;;;;;;;;;;5103659;28;19927;-76
2022/04/28 14:42:43;;;;;;;5.22;0.82;;;;;;;;;;5103944;28;20051;-73
2022/04/28 14:45:13;;;;;;;8.70;1.00;;;;;;;;;;5103644;28;20058;-74
2022/04/28 14:47:43;;;;;;;4.32;0.80;;;;;;;;;;5103134;28;20083;-73
2022/04/28 14:53:02;;;;;;;3.70;0.75;;;;;;;;;;5102944;28;20497;-74
2022/04/28 14:55:32;;;;;;;4.10;0.80;;;;;;;;;;5101879;28;20588;-74
2022/04/28 14:58:06;;;;;;;3.10;0.85;;;;;;;;;;5102383;28;20043;-75
2022/04/28 15:00:37;;;;;;;7.40;0.80;;;;;;;;;;5103710;28;20054;-74
2022/04/28 15:03:07;;;;;;;3.60;1.00;;;;;;;;;;5103084;28;20059;-75
2022/04/28 15:05:36;;;;;;;2.45;0.60;;;;;;;;;;5103492;28;20040;-77
2022/04/28 15:08:06;;;;;;;2.42;0.73;;;;;;;;;;5101716;28;20083;-76
2022/04/28 15:10:36;;;;;;;5.85;0.88;;;;;;;;;;5102964;28;20044;-76
2022/04/28 15:13:08;;;;;;;1.35;0.50;;;;;;;;;;5103164;28;20052;-76
2022/04/28 15:15:40;;;;;;;4.18;0.70;;;;;;;;;;5101855;28;20040;-76
2022/04/28 15:18:10;;;;;;;3.38;0.82;;;;;;;;;;5103281;28;20418;-77
2022/04/28 15:20:40;;;;;;;4.40;1.25;;;;;;;;;;5102692;28;20048;-77
2022/04/28 15:23:10;;;;;;;7.28;0.80;;;;;;;;;;5103242;28;20059;-78
2022/04/28 15:25:47;;;;;;;2.22;0.70;;;;;;;;;;5103026;28;20056;-79
2022/04/28 15:28:19;;;;;;;3.13;0.80;;;;;;;;;;5102249;28;20055;-78
2022/04/28 15:30:51;;;;;;;3.72;0.60;;;;;;;;;;5102514;28;20048;-77
2022/04/28 15:33:21;;;;;;;1.23;0.50;;;;;;;;;;5101518;28;20048;-75
2022/04/28 15:35:55;;;;;;;1.05;0.60;;;;;;;;;;5102487;28;20047;-76
2022/04/28 15:38:25;;;;;;;2.63;0.50;;;;;;;;;;5092333;28;20052;-75
2022/04/28 15:40:56;;;;;;;1.80;0.50;;;;;;;;;;5089519;28;20501;-76
2022/04/28 15:43:26;;;;;;;2.00;0.50;;;;;;;;;;5089086;28;20055;-76
2022/04/28 15:45:56;;;;;;;3.08;0.50;;;;;;;;;;5089232;28;20036;-76
2022/04/28 15:48:26;;;;;;;1.27;0.60;;;;;;;;;;5089530;28;20044;-75
2022/04/28 15:50:56;;;;;;;1.63;0.70;;;;;;;;;;5088667;28;20044;-75
2022/04/28 15:53:25;;;;;;;0.47;0.47;;;;;;;;;;5088597;28;20059;-75
2022/04/28 15:55:55;;;;;;;0.95;0.50;;;;;;;;;;5088507;28;20070;-74
2022/04/28 15:58:26;;;;;;;3.13;0.65;;;;;;;;;;5087828;28;20149;-75
2022/04/28 16:00:56;;;;;;;8.98;0.60;;;;;;;;;;5088967;28;20052;-75
2022/04/28 16:03:27;;;;;;;5.68;1.20;;;;;;;;;;5088183;28;20044;-76
2022/04/28 16:05:59;;;;;;;1.40;0.75;;;;;;;;;;5088414;28;20067;-76